createdAt,value
2023-05-14T00:02:25.402Z,14.30
2023-05-14T00:05:46.604Z,14.20
2023-05-14T00:09:09.457Z,14.20
2023-05-14T00:12:30.997Z,14.10
2023-05-14T00:15:52.355Z,14.00
2023-05-14T00:19:13.698Z,14.00
2023-05-14T00:22:37.017Z,14.00
2023-05-14T00:25:59.967Z,14.00
2023-05-14T00:29:21.583Z,14.00
2023-05-14T00:32:42.916Z,14.00
2023-05-14T00:36:04.321Z,14.00
2023-05-14T00:39:25.553Z,13.90
2023-05-14T00:42:48.474Z,13.90
2023-05-14T00:46:12.288Z,13.80
2023-05-14T00:49:33.754Z,13.80
2023-05-14T00:52:55.050Z,13.80
2023-05-14T00:56:17.501Z,13.70
2023-05-14T00:59:42.566Z,13.70
2023-05-14T01:03:04.240Z,13.40
2023-05-14T01:06:34.509Z,13.30
2023-05-14T01:10:01.976Z,13.40
2023-05-14T01:13:32.364Z,13.40
2023-05-14T01:16:59.784Z,13.40
2023-05-14T01:20:21.716Z,13.40
2023-05-14T01:23:44.695Z,13.40
2023-05-14T01:27:11.689Z,13.30
2023-05-14T01:30:36.658Z,13.20
2023-05-14T01:34:00.052Z,13.10
2023-05-14T01:37:22.705Z,13.10
2023-05-14T01:40:46.345Z,13.20
2023-05-14T01:44:09.204Z,13.20
2023-05-14T01:47:30.944Z,13.20
2023-05-14T01:50:52.411Z,13.30
2023-05-14T01:54:13.795Z,13.30
2023-05-14T01:57:36.557Z,13.30
2023-05-14T02:00:58.007Z,13.30
2023-05-14T02:04:20.790Z,13.30
2023-05-14T02:07:42.336Z,13.30
2023-05-14T02:11:03.722Z,13.20
2023-05-14T02:14:26.587Z,13.20
2023-05-14T02:17:47.991Z,13.20
2023-05-14T02:21:09.565Z,13.20
2023-05-14T02:24:31.130Z,13.20
2023-05-14T02:27:52.386Z,13.10
2023-05-14T02:31:17.473Z,13.10
2023-05-14T02:34:39.057Z,13.10
2023-05-14T02:38:00.484Z,13.10
2023-05-14T02:41:22.214Z,13.10
2023-05-14T02:44:43.475Z,13.10
2023-05-14T02:48:06.894Z,13.00
2023-05-14T02:51:28.322Z,13.00
2023-05-14T02:54:49.805Z,13.00
2023-05-14T02:58:11.286Z,12.90
2023-05-14T03:01:32.596Z,12.90
2023-05-14T03:04:57.055Z,12.90
2023-05-14T03:08:18.528Z,12.90
2023-05-14T03:11:39.827Z,12.80
2023-05-14T03:15:01.285Z,12.60
2023-05-14T03:18:22.560Z,12.60
2023-05-14T03:21:45.624Z,12.60
2023-05-14T03:25:08.153Z,12.60
2023-05-14T03:28:29.378Z,12.60
2023-05-14T03:31:50.969Z,12.70
2023-05-14T03:35:12.493Z,12.70
2023-05-14T03:38:35.282Z,12.70
2023-05-14T03:41:58.796Z,12.40
2023-05-14T03:45:20.751Z,12.40
2023-05-14T03:48:42.642Z,12.20
2023-05-14T03:52:04.283Z,12.20
2023-05-14T03:55:26.908Z,12.30
2023-05-14T03:58:48.360Z,12.20
2023-05-14T04:02:09.748Z,12.30
2023-05-14T04:05:30.958Z,12.40
2023-05-14T04:08:52.184Z,12.40
2023-05-14T04:12:14.728Z,12.40
2023-05-14T04:15:39.157Z,12.40
2023-05-14T04:19:03.750Z,12.50
2023-05-14T04:22:25.553Z,12.50
2023-05-14T04:25:46.711Z,12.60
2023-05-14T04:29:09.125Z,12.60
2023-05-14T04:32:31.145Z,12.70
2023-05-14T04:35:53.854Z,12.70
2023-05-14T04:39:15.095Z,12.80
2023-05-14T04:42:36.306Z,12.90
2023-05-14T04:45:58.992Z,13.00
2023-05-14T04:49:20.867Z,13.10
2023-05-14T04:52:42.844Z,13.10
2023-05-14T04:56:04.478Z,13.20
2023-05-14T04:59:25.856Z,13.30
2023-05-14T05:02:48.800Z,13.40
2023-05-14T05:06:10.229Z,13.50
2023-05-14T05:09:31.772Z,13.50
2023-05-14T05:12:53.476Z,13.50
2023-05-14T05:16:14.760Z,13.50
2023-05-14T05:19:43.715Z,13.70
2023-05-14T05:23:06.313Z,13.70
2023-05-14T05:26:28.209Z,13.80
2023-05-14T05:29:49.805Z,14.10
2023-05-14T05:33:11.174Z,14.30
2023-05-14T05:36:33.977Z,14.70
2023-05-14T05:39:55.486Z,15.00
2023-05-14T05:43:16.770Z,15.50
2023-05-14T05:46:38.136Z,16.00
2023-05-14T05:49:59.551Z,16.40
2023-05-14T05:53:22.459Z,16.90
2023-05-14T05:56:43.894Z,17.30
2023-05-14T06:00:12.793Z,17.40
2023-05-14T06:03:34.079Z,17.90
2023-05-14T06:06:55.545Z,18.20
2023-05-14T06:10:19.011Z,18.80
2023-05-14T06:13:40.790Z,19.20
2023-05-14T06:17:02.266Z,19.50
2023-05-14T06:20:24.114Z,19.60
2023-05-14T06:23:45.907Z,20.10
2023-05-14T06:27:08.765Z,20.40
2023-05-14T06:30:30.264Z,20.90
2023-05-14T06:33:51.429Z,21.30
2023-05-14T06:37:12.896Z,21.30
2023-05-14T06:40:34.131Z,20.90
2023-05-14T06:43:57.620Z,20.30
2023-05-14T06:47:19.086Z,20.00
2023-05-14T06:50:41.256Z,19.70
2023-05-14T06:54:02.900Z,19.60
2023-05-14T06:57:24.125Z,19.50
2023-05-14T07:00:47.025Z,19.30
2023-05-14T07:04:08.529Z,19.10
2023-05-14T07:07:30.239Z,19.00
2023-05-14T07:10:51.489Z,18.90
2023-05-14T07:14:13.029Z,18.90
2023-05-14T07:17:35.606Z,18.80
2023-05-14T07:20:56.889Z,18.90
2023-05-14T07:24:18.353Z,19.10
2023-05-14T07:27:40.084Z,19.20
2023-05-14T07:31:01.939Z,19.20
2023-05-14T07:34:24.614Z,19.40
2023-05-14T07:37:46.163Z,19.60
2023-05-14T07:41:07.813Z,19.90
2023-05-14T07:44:29.199Z,20.30
2023-05-14T07:47:51.878Z,20.60
2023-05-14T07:51:14.850Z,20.80
2023-05-14T07:54:36.914Z,20.70
2023-05-14T07:57:58.499Z,21.10
2023-05-14T08:01:19.786Z,21.40
2023-05-14T08:04:41.088Z,21.20
2023-05-14T08:08:03.682Z,21.10
2023-05-14T08:11:26.051Z,20.80
2023-05-14T08:14:47.623Z,20.80
2023-05-14T08:18:09.306Z,20.90
2023-05-14T08:21:30.641Z,20.90
2023-05-14T08:24:53.381Z,20.80
2023-05-14T08:28:15.167Z,21.00
2023-05-14T08:31:36.565Z,21.20
2023-05-14T08:34:57.668Z,21.30
2023-05-14T08:38:18.956Z,21.50
2023-05-14T08:41:41.594Z,21.90
2023-05-14T08:45:04.376Z,22.20
2023-05-14T08:48:27.912Z,22.40
2023-05-14T08:51:49.511Z,22.50
2023-05-14T08:55:12.646Z,22.40
2023-05-14T08:58:35.719Z,22.30
2023-05-14T09:01:59.420Z,22.30
2023-05-14T09:05:21.770Z,22.30
2023-05-14T09:08:43.858Z,22.40
2023-05-14T09:12:07.192Z,22.40
2023-05-14T09:15:30.520Z,22.40
2023-05-14T09:18:52.731Z,22.10
2023-05-14T09:22:16.081Z,21.90
2023-05-14T09:25:37.467Z,22.00
2023-05-14T09:29:01.753Z,22.10
2023-05-14T09:32:24.944Z,22.10
2023-05-14T09:35:47.944Z,22.10
2023-05-14T09:39:09.985Z,22.20
2023-05-14T09:42:31.433Z,22.10
2023-05-14T09:45:52.908Z,21.90
2023-05-14T09:49:16.097Z,22.00
2023-05-14T09:52:38.367Z,22.20
2023-05-14T09:56:00.104Z,22.30
2023-05-14T09:59:21.764Z,22.50
2023-05-14T10:02:45.382Z,22.50
2023-05-14T10:06:10.509Z,22.50
2023-05-14T10:09:32.173Z,22.70
2023-05-14T10:12:57.982Z,22.80
2023-05-14T10:16:23.186Z,22.90
2023-05-14T10:19:48.546Z,22.80
2023-05-14T10:23:11.633Z,22.60
2023-05-14T10:26:33.683Z,22.60
2023-05-14T10:29:56.667Z,22.60
2023-05-14T10:33:18.788Z,22.90
2023-05-14T10:36:40.568Z,23.20
2023-05-14T10:40:06.303Z,23.50
2023-05-14T10:43:29.329Z,23.60
2023-05-14T10:46:51.058Z,23.80
2023-05-14T10:50:14.085Z,23.90
2023-05-14T10:53:37.135Z,23.90
2023-05-14T10:57:01.991Z,23.90
2023-05-14T11:00:27.677Z,23.60
2023-05-14T11:03:54.020Z,23.60
2023-05-14T11:07:15.450Z,23.60
2023-05-14T11:10:37.029Z,23.60
2023-05-14T11:13:59.905Z,23.70
2023-05-14T11:17:21.303Z,23.50
2023-05-14T11:20:42.737Z,23.50
2023-05-14T11:24:05.449Z,23.40
2023-05-14T11:27:27.279Z,23.30
2023-05-14T11:30:50.483Z,23.30
2023-05-14T11:34:12.550Z,22.90
2023-05-14T11:37:34.214Z,22.90
2023-05-14T11:40:55.922Z,23.10
2023-05-14T11:44:18.119Z,23.30
2023-05-14T11:47:42.389Z,23.20
2023-05-14T11:51:05.870Z,23.30
2023-05-14T11:54:28.378Z,23.40
2023-05-14T11:57:49.591Z,23.80
2023-05-14T12:01:14.555Z,23.60
2023-05-14T12:04:37.424Z,23.50
2023-05-14T12:07:59.027Z,23.40
2023-05-14T12:11:22.519Z,23.40
2023-05-14T12:14:45.383Z,23.30
2023-05-14T12:18:20.597Z,23.40
2023-05-14T12:21:48.277Z,23.80
2023-05-14T12:25:14.168Z,24.60
2023-05-14T12:28:38.205Z,24.90
2023-05-14T12:32:00.251Z,25.30
2023-05-14T12:35:22.594Z,25.20
2023-05-14T12:38:46.267Z,25.00
2023-05-14T12:42:07.809Z,25.20
2023-05-14T12:45:29.351Z,25.90
2023-05-14T12:48:53.073Z,26.40
2023-05-14T12:52:25.644Z,27.00
2023-05-14T12:55:56.057Z,28.00
2023-05-14T12:59:17.270Z,28.80
2023-05-14T13:02:43.006Z,29.20
2023-05-14T13:06:05.319Z,29.30
2023-05-14T13:09:27.772Z,28.70
2023-05-14T13:12:50.617Z,28.10
2023-05-14T13:16:16.607Z,28.10
2023-05-14T13:19:38.009Z,28.00
2023-05-14T13:22:59.757Z,27.40
2023-05-14T13:26:21.665Z,27.10
2023-05-14T13:29:44.561Z,27.20
2023-05-14T13:33:06.580Z,27.00
2023-05-14T13:36:27.925Z,26.20
2023-05-14T13:39:51.314Z,25.70
2023-05-14T13:43:14.763Z,25.10
2023-05-14T13:46:37.887Z,24.60
2023-05-14T13:49:59.517Z,24.30
2023-05-14T13:53:21.231Z,23.80
2023-05-14T13:56:42.834Z,23.60
2023-05-14T14:00:06.612Z,23.80
2023-05-14T14:03:29.225Z,23.80
2023-05-14T14:06:50.649Z,23.60
2023-05-14T14:10:12.245Z,23.50
2023-05-14T14:13:33.914Z,23.50
2023-05-14T14:16:55.294Z,23.70
2023-05-14T14:20:18.386Z,23.70
2023-05-14T14:23:40.048Z,23.70
2023-05-14T14:27:02.287Z,23.70
2023-05-14T14:30:23.267Z,23.50
2023-05-14T14:33:44.759Z,23.40
2023-05-14T14:37:07.893Z,23.30
2023-05-14T14:40:29.753Z,23.10
2023-05-14T14:43:51.156Z,23.10
2023-05-14T14:47:12.560Z,23.20
2023-05-14T14:50:34.001Z,23.20
2023-05-14T14:53:56.985Z,23.00
2023-05-14T14:57:18.928Z,23.00
2023-05-14T15:00:41.074Z,22.90
2023-05-14T15:04:02.967Z,23.00
2023-05-14T15:07:24.147Z,23.30
2023-05-14T15:10:46.918Z,23.50
2023-05-14T15:14:08.265Z,23.50
2023-05-14T15:17:29.600Z,23.50
2023-05-14T15:20:52.041Z,23.40
2023-05-14T15:24:14.094Z,23.20
2023-05-14T15:27:37.227Z,23.10
2023-05-14T15:30:58.517Z,23.10
2023-05-14T15:34:19.984Z,23.10
2023-05-14T15:37:43.204Z,23.10
2023-05-14T15:41:04.853Z,23.20
2023-05-14T15:44:27.719Z,23.20
2023-05-14T15:47:49.211Z,23.20
2023-05-14T15:51:10.520Z,23.20
2023-05-14T15:54:31.812Z,23.20
2023-05-14T15:57:53.251Z,23.10
2023-05-14T16:01:16.152Z,23.10
2023-05-14T16:04:37.824Z,23.10
2023-05-14T16:07:59.712Z,23.10
2023-05-14T16:11:21.449Z,23.10
2023-05-14T16:14:45.123Z,23.00
2023-05-14T16:18:08.142Z,22.90
2023-05-14T16:21:29.699Z,22.80
2023-05-14T16:24:51.284Z,22.60
2023-05-14T16:28:12.444Z,22.40
2023-05-14T16:31:34.156Z,22.40
2023-05-14T16:34:56.800Z,22.40
2023-05-14T16:38:19.137Z,22.40
2023-05-14T16:41:41.037Z,22.30
2023-05-14T16:45:02.242Z,22.30
2023-05-14T16:48:25.948Z,22.10
2023-05-14T16:51:48.964Z,22.20
2023-05-14T16:55:10.828Z,22.10
2023-05-14T16:58:32.121Z,22.00
2023-05-14T17:01:53.548Z,22.10
2023-05-14T17:05:15.188Z,22.00
2023-05-14T17:08:37.870Z,22.10
2023-05-14T17:11:59.372Z,22.00
2023-05-14T17:15:20.886Z,22.00
2023-05-14T17:18:42.250Z,22.00
2023-05-14T17:22:05.803Z,21.90
2023-05-14T17:25:28.774Z,21.90
2023-05-14T17:28:50.476Z,21.90
2023-05-14T17:32:11.953Z,21.70
2023-05-14T17:35:35.775Z,21.60
2023-05-14T17:38:57.277Z,21.60
2023-05-14T17:42:20.115Z,21.50
2023-05-14T17:45:53.240Z,21.40
2023-05-14T17:49:15.709Z,21.50
2023-05-14T17:52:37.731Z,21.30
2023-05-14T17:55:59.063Z,21.30
2023-05-14T17:59:24.102Z,21.10
2023-05-14T18:02:46.066Z,21.00
2023-05-14T18:06:07.529Z,20.90
2023-05-14T18:09:28.827Z,20.90
2023-05-14T18:12:50.535Z,20.80
2023-05-14T18:16:13.424Z,20.80
2023-05-14T18:19:34.737Z,20.70
2023-05-14T18:22:55.990Z,20.60
2023-05-14T18:26:17.191Z,20.60
2023-05-14T18:29:38.478Z,20.50
2023-05-14T18:33:01.539Z,20.40
2023-05-14T18:36:22.953Z,20.40
2023-05-14T18:39:44.218Z,20.30
2023-05-14T18:43:05.775Z,20.10
2023-05-14T18:46:27.296Z,20.00
2023-05-14T18:49:51.574Z,20.00
2023-05-14T18:53:13.126Z,19.90
2023-05-14T18:56:34.582Z,19.90
2023-05-14T18:59:56.130Z,19.80
2023-05-14T19:03:17.511Z,19.70
2023-05-14T19:06:41.156Z,19.60
2023-05-14T19:10:03.663Z,19.60
2023-05-14T19:13:25.104Z,19.40
2023-05-14T19:16:46.777Z,19.40
2023-05-14T19:20:09.373Z,19.20
2023-05-14T19:23:32.741Z,19.20
2023-05-14T19:26:54.236Z,19.20
2023-05-14T19:30:15.885Z,19.10
2023-05-14T19:33:37.354Z,19.10
2023-05-14T19:36:58.732Z,19.00
2023-05-14T19:40:21.751Z,19.00
2023-05-14T19:43:43.435Z,18.90
2023-05-14T19:47:05.451Z,18.90
2023-05-14T19:50:27.229Z,18.80
2023-05-14T19:53:48.693Z,18.80
2023-05-14T19:57:11.964Z,18.70
2023-05-14T20:00:33.147Z,18.60
2023-05-14T20:03:54.817Z,18.50
2023-05-14T20:07:17.165Z,18.40
2023-05-14T20:10:38.796Z,18.40
2023-05-14T20:14:01.549Z,18.30
2023-05-14T20:17:22.892Z,18.30
2023-05-14T20:20:44.320Z,18.20
2023-05-14T20:24:06.246Z,18.10
2023-05-14T20:27:27.831Z,18.00
2023-05-14T20:30:50.440Z,17.90
2023-05-14T20:34:11.601Z,17.90
2023-05-14T20:37:33.671Z,17.80
2023-05-14T20:40:55.411Z,17.80
2023-05-14T20:44:18.297Z,17.80
2023-05-14T20:47:41.672Z,17.80
2023-05-14T20:51:04.847Z,17.80
2023-05-14T20:54:26.287Z,17.70
2023-05-14T20:57:49.536Z,17.70
2023-05-14T21:01:11.087Z,17.70
2023-05-14T21:04:34.739Z,17.70
2023-05-14T21:07:56.382Z,17.70
2023-05-14T21:11:17.669Z,17.60
2023-05-14T21:14:39.072Z,17.60
2023-05-14T21:18:01.081Z,17.60
2023-05-14T21:21:23.976Z,17.50
2023-05-14T21:24:45.516Z,17.40
2023-05-14T21:28:07.111Z,17.40
2023-05-14T21:31:28.525Z,17.30
2023-05-14T21:34:49.884Z,17.10
2023-05-14T21:38:13.369Z,17.10
2023-05-14T21:41:35.361Z,17.10
2023-05-14T21:44:56.882Z,17.00
2023-05-14T21:48:18.342Z,17.00
2023-05-14T21:51:40.235Z,16.90
2023-05-14T21:55:02.994Z,16.80
2023-05-14T21:58:24.523Z,16.80
2023-05-14T22:02:05.549Z,16.70
2023-05-14T22:05:28.482Z,16.70
2023-05-14T22:08:50.081Z,16.70
2023-05-14T22:12:12.802Z,16.70
2023-05-14T22:15:34.305Z,16.60
2023-05-14T22:18:56.169Z,16.50
2023-05-14T22:22:17.467Z,16.50
2023-05-14T22:25:38.694Z,16.40
2023-05-14T22:29:01.520Z,16.40
2023-05-14T22:32:23.162Z,16.40
2023-05-14T22:35:44.516Z,16.30
2023-05-14T22:39:05.947Z,16.30
2023-05-14T22:42:28.385Z,16.30
2023-05-14T22:45:51.495Z,16.20
2023-05-14T22:49:12.823Z,16.20
2023-05-14T22:52:34.609Z,16.10
2023-05-14T22:55:56.072Z,16.10
2023-05-14T22:59:17.592Z,16.00
2023-05-14T23:02:40.420Z,16.00
2023-05-14T23:06:02.284Z,15.90
2023-05-14T23:09:23.446Z,15.90
2023-05-14T23:12:44.910Z,15.90
2023-05-14T23:16:06.678Z,15.70
2023-05-14T23:19:29.346Z,15.70
2023-05-14T23:22:50.644Z,15.70
2023-05-14T23:26:12.174Z,15.60
2023-05-14T23:29:33.820Z,15.60
2023-05-14T23:32:55.292Z,15.50
2023-05-14T23:36:18.411Z,15.50
2023-05-14T23:39:40.168Z,15.40
2023-05-14T23:43:01.431Z,15.40
2023-05-14T23:46:23.357Z,15.40
2023-05-14T23:49:44.891Z,15.30
2023-05-14T23:53:07.836Z,15.20
2023-05-14T23:56:29.909Z,15.20
2023-05-14T23:59:51.328Z,15.10
